Time;durP1;ratioP1;P1;durP2;ratioP2;P2;SDS_P1;SDS_P2;PMS_P1;PMS_P2;Temp;Humidity;BMP_temperature;BMP_pressure;BME280_temperature;BME280_humidity;BME280_pressure;Samples;Min_cycle;Max_cycle;Signal;HPM_P1;HPM_P2
2022/05/02 00:02:11;;;;;;;25.92;13.75;;;;;;;;;;4978336;28;20113;-64
2022/05/02 00:04:37;;;;;;;29.30;15.35;;;;;;;;;;4987983;28;20022;-64
2022/05/02 00:07:03;;;;;;;32.90;14.85;;;;;;;;;;4976114;28;20045;-64
2022/05/02 00:09:29;;;;;;;30.23;15.68;;;;;;;;;;4983679;28;20038;-64
2022/05/02 00:11:56;;;;;;;28.98;15.80;;;;;;;;;;4983170;28;20038;-64
2022/05/02 00:14:22;;;;;;;31.67;15.85;;;;;;;;;;4976948;28;20034;-64
2022/05/02 00:16:48;;;;;;;27.60;15.68;;;;;;;;;;4987662;28;20046;-64
2022/05/02 00:19:14;;;;;;;29.55;16.02;;;;;;;;;;4977394;28;20380;-64
2022/05/02 00:21:40;;;;;;;28.85;16.50;;;;;;;;;;4982058;28;20076;-65
2022/05/02 00:24:08;;;;;;;30.33;15.88;;;;;;;;;;4990426;28;20042;-65
2022/05/02 00:26:35;;;;;;;30.98;16.67;;;;;;;;;;4975138;28;20046;-64
2022/05/02 00:29:01;;;;;;;32.35;16.92;;;;;;;;;;4987643;28;20476;-64
2022/05/02 00:31:27;;;;;;;38.20;17.23;;;;;;;;;;4978717;28;20026;-65
2022/05/02 00:33:53;;;;;;;31.58;15.95;;;;;;;;;;4980565;28;20030;-65
2022/05/02 00:36:19;;;;;;;33.80;16.65;;;;;;;;;;4985408;28;20106;-65
2022/05/02 00:38:46;;;;;;;32.88;17.20;;;;;;;;;;4974644;28;20076;-65
2022/05/02 00:41:13;;;;;;;35.63;18.67;;;;;;;;;;4986171;28;20021;-65
2022/05/02 01:08:07;;;;;;;;;;;;;;;;;;4979060;28;20487;-65
2022/05/02 01:10:33;;;;;;;40.97;19.35;;;;;;;;;;4978071;28;19921;-65
2022/05/02 01:12:59;;;;;;;36.13;19.35;;;;;;;;;;4986822;28;20042;-65
2022/05/02 01:15:27;;;;;;;33.67;18.75;;;;;;;;;;4976459;28;20395;-64
2022/05/02 01:17:53;;;;;;;40.50;19.75;;;;;;;;;;4981259;28;20019;-64
2022/05/02 01:20:19;;;;;;;35.60;19.42;;;;;;;;;;4983357;28;20036;-65
2022/05/02 01:22:45;;;;;;;45.03;20.48;;;;;;;;;;4990569;28;20026;-65
2022/05/02 01:25:12;;;;;;;42.03;21.75;;;;;;;;;;4990653;28;20400;-65
2022/05/02 01:27:38;;;;;;;35.85;20.17;;;;;;;;;;4990656;28;20030;-65
2022/05/02 01:30:04;;;;;;;45.22;20.88;;;;;;;;;;4990288;28;20034;-64
2022/05/02 01:32:30;;;;;;;39.63;21.77;;;;;;;;;;4990715;28;20400;-64
2022/05/02 01:34:56;;;;;;;55.97;22.65;;;;;;;;;;4990178;28;20465;-65
2022/05/02 01:37:23;;;;;;;38.33;20.92;;;;;;;;;;4990661;28;20027;-64
2022/05/02 01:39:49;;;;;;;44.28;21.70;;;;;;;;;;4990622;28;20030;-64
2022/05/02 01:42:15;;;;;;;41.15;21.50;;;;;;;;;;4990559;28;20061;-65
2022/05/02 01:44:41;;;;;;;40.53;21.13;;;;;;;;;;4990502;28;20077;-65
2022/05/02 01:47:08;;;;;;;37.78;20.52;;;;;;;;;;4989251;28;20558;-64
2022/05/02 01:49:34;;;;;;;38.65;20.73;;;;;;;;;;4978278;28;20042;-65
2022/05/02 01:52:01;;;;;;;44.05;20.60;;;;;;;;;;4970421;28;20030;-65
2022/05/02 01:54:27;;;;;;;45.33;21.27;;;;;;;;;;4970937;28;20385;-65
2022/05/02 01:56:55;;;;;;;36.70;20.23;;;;;;;;;;4970739;28;20042;-64
2022/05/02 01:59:21;;;;;;;38.00;18.92;;;;;;;;;;4970654;28;20391;-64
2022/05/02 02:01:48;;;;;;;37.97;20.60;;;;;;;;;;4969741;28;20023;-65
2022/05/02 02:06:59;;;;;;;34.17;18.35;;;;;;;;;;4970368;28;20039;-65
2022/05/02 02:09:25;;;;;;;38.05;19.75;;;;;;;;;;4970484;28;20074;-65
2022/05/02 02:11:51;;;;;;;34.00;18.58;;;;;;;;;;4970520;28;20027;-65
2022/05/02 02:14:17;;;;;;;30.48;19.20;;;;;;;;;;4970613;28;20023;-65
2022/05/02 02:16:44;;;;;;;33.25;18.27;;;;;;;;;;4970185;28;20066;-65
2022/05/02 02:19:10;;;;;;;31.52;18.10;;;;;;;;;;4970339;28;20113;-65
2022/05/02 02:21:36;;;;;;;34.80;17.67;;;;;;;;;;4970455;28;20489;-65
2022/05/02 02:24:04;;;;;;;34.05;18.75;;;;;;;;;;4988505;28;20037;-65
2022/05/02 02:26:30;;;;;;;33.17;17.60;;;;;;;;;;4989334;28;20520;-65
2022/05/02 02:28:58;;;;;;;34.35;18.05;;;;;;;;;;4989859;28;20041;-65
2022/05/02 02:31:24;;;;;;;33.70;18.05;;;;;;;;;;4989570;28;20038;-65
2022/05/02 02:33:50;;;;;;;33.05;17.75;;;;;;;;;;4989776;28;20026;-65
2022/05/02 02:36:16;;;;;;;34.40;18.58;;;;;;;;;;4989625;28;20110;-65
2022/05/02 02:38:42;;;;;;;36.13;18.40;;;;;;;;;;4990001;28;20022;-65
2022/05/02 02:41:08;;;;;;;31.83;18.00;;;;;;;;;;4989483;28;20034;-65
2022/05/02 02:43:35;;;;;;;32.30;17.13;;;;;;;;;;4989691;28;20445;-65
2022/05/02 02:46:01;;;;;;;34.70;17.10;;;;;;;;;;4989320;28;20487;-65
2022/05/02 02:48:27;;;;;;;33.83;18.25;;;;;;;;;;4989676;28;20027;-65
2022/05/02 02:50:53;;;;;;;31.80;18.17;;;;;;;;;;4989691;28;20098;-64
2022/05/02 02:53:19;;;;;;;34.10;18.48;;;;;;;;;;4989271;28;20029;-65
2022/05/02 02:55:45;;;;;;;36.95;17.55;;;;;;;;;;4989644;28;20033;-65
2022/05/02 02:58:11;;;;;;;38.67;18.02;;;;;;;;;;4989346;28;20080;-65
2022/05/02 03:00:37;;;;;;;34.55;17.85;;;;;;;;;;4984216;28;20445;-65
2022/05/02 03:03:04;;;;;;;31.00;17.27;;;;;;;;;;4968860;28;20023;-64
2022/05/02 03:08:15;;;;;;;35.50;18.60;;;;;;;;;;4989118;28;20053;-65
2022/05/02 03:10:42;;;;;;;38.58;19.70;;;;;;;;;;4970775;28;20458;-65
2022/05/02 03:13:09;;;;;;;35.05;20.20;;;;;;;;;;4972288;28;20030;-65
2022/05/02 03:15:36;;;;;;;36.20;20.70;;;;;;;;;;4972978;28;20056;-65
2022/05/02 03:18:03;;;;;;;37.17;20.52;;;;;;;;;;4973144;28;20627;-65
2022/05/02 03:20:29;;;;;;;40.67;21.83;;;;;;;;;;4973070;28;20033;-65
2022/05/02 03:22:55;;;;;;;37.13;18.70;;;;;;;;;;4982506;28;20038;-65
2022/05/02 03:25:21;;;;;;;38.85;20.70;;;;;;;;;;4992454;28;20065;-65
2022/05/02 03:27:47;;;;;;;37.50;20.92;;;;;;;;;;4992498;28;20035;-65
2022/05/02 03:30:14;;;;;;;35.80;20.52;;;;;;;;;;4991790;28;20095;-65
2022/05/02 03:32:40;;;;;;;35.28;19.15;;;;;;;;;;4992493;28;20034;-65
2022/05/02 03:35:06;;;;;;;39.42;19.98;;;;;;;;;;4992153;28;20434;-65
2022/05/02 03:37:33;;;;;;;39.90;18.92;;;;;;;;;;4991012;28;20027;-65
2022/05/02 03:39:59;;;;;;;37.47;19.40;;;;;;;;;;4992301;28;20515;-65
2022/05/02 03:42:25;;;;;;;39.08;19.27;;;;;;;;;;4983608;28;20018;-65
2022/05/02 03:44:51;;;;;;;30.60;17.52;;;;;;;;;;4972597;28;20038;-65
2022/05/02 03:47:18;;;;;;;38.78;18.40;;;;;;;;;;4988725;28;20121;-65
2022/05/02 03:49:44;;;;;;;32.85;18.27;;;;;;;;;;4992151;28;20023;-65
2022/05/02 03:52:10;;;;;;;30.98;17.90;;;;;;;;;;4991954;28;20076;-65
2022/05/02 03:54:36;;;;;;;33.58;18.30;;;;;;;;;;4991979;28;20031;-65
2022/05/02 03:57:03;;;;;;;42.25;18.63;;;;;;;;;;4992063;28;20041;-65
2022/05/02 03:59:29;;;;;;;32.67;18.95;;;;;;;;;;4991606;28;20027;-65
2022/05/02 04:01:55;;;;;;;32.22;16.60;;;;;;;;;;4991967;28;20030;-65
2022/05/02 04:04:21;;;;;;;34.67;17.85;;;;;;;;;;4991601;28;20038;-65
2022/05/02 04:06:48;;;;;;;33.33;18.15;;;;;;;;;;4991952;28;20034;-65
2022/05/02 04:09:14;;;;;;;39.10;18.35;;;;;;;;;;4991413;28;20046;-65
2022/05/02 04:11:41;;;;;;;30.10;16.63;;;;;;;;;;4992010;28;20033;-65
2022/05/02 04:14:07;;;;;;;31.40;15.82;;;;;;;;;;4991244;28;20094;-65
2022/05/02 04:16:33;;;;;;;33.22;16.80;;;;;;;;;;4991609;28;20110;-65
2022/05/02 04:18:59;;;;;;;31.38;16.50;;;;;;;;;;4991760;28;20030;-65
2022/05/02 04:21:25;;;;;;;41.58;17.17;;;;;;;;;;4991509;28;20037;-65
2022/05/02 04:23:51;;;;;;;28.05;16.02;;;;;;;;;;4990740;28;20030;-65
2022/05/02 04:26:17;;;;;;;30.58;16.10;;;;;;;;;;4991457;28;20046;-65
2022/05/02 04:28:44;;;;;;;35.28;17.42;;;;;;;;;;4991189;28;20030;-65
2022/05/02 04:31:10;;;;;;;29.15;16.40;;;;;;;;;;4991618;28;20041;-65
2022/05/02 04:33:36;;;;;;;31.38;17.17;;;;;;;;;;4991447;28;20104;-65
2022/05/02 04:36:02;;;;;;;32.80;16.92;;;;;;;;;;4987169;28;20034;-65
2022/05/02 04:38:30;;;;;;;33.05;18.02;;;;;;;;;;4981922;28;20400;-65
2022/05/02 04:40:57;;;;;;;37.25;17.65;;;;;;;;;;4971947;28;20034;-65
2022/05/02 04:43:23;;;;;;;33.67;17.70;;;;;;;;;;4976731;28;20027;-65
2022/05/02 04:45:49;;;;;;;30.63;17.65;;;;;;;;;;4985769;28;20039;-65
2022/05/02 04:48:15;;;;;;;37.08;18.45;;;;;;;;;;4972323;28;20019;-65
2022/05/02 04:50:41;;;;;;;38.97;18.10;;;;;;;;;;4981523;28;20064;-65
2022/05/02 04:53:07;;;;;;;34.70;17.90;;;;;;;;;;4988733;28;20409;-65
2022/05/02 04:55:33;;;;;;;44.35;20.00;;;;;;;;;;4976616;28;20034;-65
2022/05/02 04:57:59;;;;;;;35.35;17.25;;;;;;;;;;4991332;28;20031;-65
2022/05/02 05:00:26;;;;;;;35.15;18.92;;;;;;;;;;4971407;28;20536;-65
2022/05/02 05:02:52;;;;;;;38.50;19.27;;;;;;;;;;4970875;28;20015;-66
2022/05/02 05:05:18;;;;;;;34.58;18.20;;;;;;;;;;4970646;28;20112;-66
2022/05/02 05:07:44;;;;;;;41.15;19.42;;;;;;;;;;4970706;28;20043;-66
2022/05/02 05:10:11;;;;;;;37.95;19.25;;;;;;;;;;4978024;28;20083;-66
2022/05/02 05:12:47;;;;;;;40.10;19.52;;;;;;;;;;4977839;28;20042;-66
2022/05/02 05:18:11;;;;;;;41.13;18.25;;;;;;;;;;4981144;28;20494;-65
2022/05/02 05:20:56;;;;;;;32.53;18.08;;;;;;;;;;4979286;28;20510;-65
2022/05/02 05:23:37;;;;;;;35.60;17.90;;;;;;;;;;4981977;28;20026;-65
2022/05/02 05:26:09;;;;;;;34.58;19.80;;;;;;;;;;4985697;28;20023;-65
2022/05/02 05:28:42;;;;;;;36.90;18.42;;;;;;;;;;4974375;28;20488;-66
2022/05/02 05:31:26;;;;;;;32.00;18.33;;;;;;;;;;4974207;28;20470;-65
2022/05/02 05:34:28;;;;;;;34.88;18.63;;;;;;;;;;4973081;28;20117;-64
2022/05/02 05:37:06;;;;;;;36.45;18.27;;;;;;;;;;5034577;28;20048;-67
2022/05/02 05:39:36;;;;;;;31.60;18.17;;;;;;;;;;5044963;28;20044;-65
2022/05/02 05:42:02;;;;;;;35.13;18.13;;;;;;;;;;5040135;28;20037;-66
2022/05/02 05:44:40;;;;;;;32.47;18.67;;;;;;;;;;5042146;28;20583;-65
2022/05/02 05:47:27;;;;;;;36.45;18.52;;;;;;;;;;5036786;28;20040;-65
2022/05/02 05:50:17;;;;;;;32.45;17.33;;;;;;;;;;5034143;28;20393;-65
2022/05/02 05:53:05;;;;;;;29.90;17.23;;;;;;;;;;5029557;28;20053;-65
2022/05/02 05:55:54;;;;;;;34.28;17.58;;;;;;;;;;5035238;28;20041;-65
2022/05/02 05:58:26;;;;;;;35.80;17.25;;;;;;;;;;5031991;28;20037;-65
2022/05/02 06:00:57;;;;;;;32.58;18.00;;;;;;;;;;5028297;28;20080;-65
2022/05/02 06:03:30;;;;;;;32.45;15.65;;;;;;;;;;5037088;28;20037;-65
2022/05/02 06:05:56;;;;;;;30.70;15.27;;;;;;;;;;5039147;28;20124;-65
2022/05/02 06:08:23;;;;;;;29.73;14.63;;;;;;;;;;5029619;28;20052;-65
2022/05/02 06:10:52;;;;;;;27.02;14.77;;;;;;;;;;5009949;28;20125;-65
2022/05/02 06:13:19;;;;;;;25.98;14.23;;;;;;;;;;4977268;28;20109;-65
2022/05/02 06:18:35;;;;;;;24.45;14.30;;;;;;;;;;4976011;28;20053;-65
2022/05/02 06:21:03;;;;;;;26.80;14.20;;;;;;;;;;4980666;28;20113;-66
2022/05/02 06:23:32;;;;;;;26.90;14.32;;;;;;;;;;4981040;28;20046;-65
2022/05/02 06:25:58;;;;;;;26.65;14.52;;;;;;;;;;4970479;28;20041;-65
2022/05/02 06:28:27;;;;;;;24.05;12.57;;;;;;;;;;4969406;28;20038;-65
2022/05/02 06:30:56;;;;;;;24.67;13.95;;;;;;;;;;4968629;28;20630;-68
2022/05/02 06:33:24;;;;;;;24.88;12.82;;;;;;;;;;4968739;28;20027;-68
2022/05/02 06:35:53;;;;;;;22.98;12.75;;;;;;;;;;4969286;28;20049;-68
2022/05/02 06:38:49;;;;;;;24.60;13.05;;;;;;;;;;4969128;28;20037;-68
2022/05/02 06:41:33;;;;;;;23.55;12.90;;;;;;;;;;5028717;28;20041;-68
2022/05/02 06:44:06;;;;;;;21.90;12.07;;;;;;;;;;5028623;28;20041;-68
2022/05/02 06:46:43;;;;;;;25.80;13.10;;;;;;;;;;5037278;28;20048;-68
2022/05/02 06:49:12;;;;;;;19.58;12.13;;;;;;;;;;5052608;28;20033;-68
2022/05/02 06:51:39;;;;;;;26.23;13.82;;;;;;;;;;5052669;28;20087;-68
2022/05/02 06:54:32;;;;;;;26.20;13.57;;;;;;;;;;5051992;28;20540;-68
2022/05/02 06:57:04;;;;;;;26.40;12.60;;;;;;;;;;4973625;28;20070;-68
2022/05/02 06:59:41;;;;;;;19.10;11.52;;;;;;;;;;4973896;28;20035;-68
2022/05/02 07:02:13;;;;;;;20.52;12.02;;;;;;;;;;4973540;28;20134;-68
2022/05/02 07:04:47;;;;;;;22.02;12.20;;;;;;;;;;4973791;28;20196;-68
2022/05/02 07:07:36;;;;;;;17.85;11.55;;;;;;;;;;4973193;28;20049;-68
2022/05/02 07:10:04;;;;;;;22.23;12.07;;;;;;;;;;4973316;28;20113;-68
2022/05/02 07:12:31;;;;;;;23.55;11.73;;;;;;;;;;4973643;28;20031;-68
2022/05/02 07:15:06;;;;;;;26.00;12.50;;;;;;;;;;4972967;28;20504;-68
2022/05/02 07:17:45;;;;;;;21.25;12.50;;;;;;;;;;4954059;28;20044;-68
2022/05/02 07:20:18;;;;;;;25.92;12.82;;;;;;;;;;4931626;29;20071;-68
2022/05/02 07:22:47;;;;;;;23.13;12.63;;;;;;;;;;4931198;29;20143;-67
2022/05/02 07:25:14;;;;;;;24.17;12.40;;;;;;;;;;4941206;29;20070;-65
2022/05/02 07:27:53;;;;;;;24.25;12.27;;;;;;;;;;4946439;29;20062;-65
2022/05/02 07:30:23;;;;;;;24.23;11.95;;;;;;;;;;4931666;29;20135;-65
2022/05/02 07:32:53;;;;;;;25.25;12.18;;;;;;;;;;4938525;28;20042;-65
2022/05/02 07:35:21;;;;;;;25.35;11.57;;;;;;;;;;4991515;28;20079;-65
2022/05/02 07:37:47;;;;;;;17.50;11.57;;;;;;;;;;4991097;28;20048;-65
2022/05/02 07:40:14;;;;;;;25.83;12.48;;;;;;;;;;4991518;28;20148;-65
2022/05/02 07:42:42;;;;;;;30.15;12.65;;;;;;;;;;4991270;28;20113;-65
2022/05/02 07:45:10;;;;;;;21.88;12.32;;;;;;;;;;4991303;28;20401;-65
2022/05/02 07:47:37;;;;;;;20.20;12.95;;;;;;;;;;4991278;28;20510;-65
2022/05/02 07:50:05;;;;;;;21.67;13.82;;;;;;;;;;4990685;28;20026;-65
2022/05/02 07:52:34;;;;;;;27.13;12.07;;;;;;;;;;4991333;28;20415;-65
2022/05/02 07:55:01;;;;;;;20.10;12.40;;;;;;;;;;4991217;28;20101;-65
2022/05/02 07:57:28;;;;;;;21.02;12.23;;;;;;;;;;4991054;28;20030;-65
2022/05/02 07:59:58;;;;;;;23.88;13.80;;;;;;;;;;4990174;28;20101;-65
2022/05/02 08:02:24;;;;;;;25.60;12.93;;;;;;;;;;4991398;28;20079;-65
2022/05/02 08:04:53;;;;;;;23.58;12.88;;;;;;;;;;4990702;28;20034;-65
2022/05/02 08:07:23;;;;;;;26.17;13.18;;;;;;;;;;4991184;28;20057;-65
2022/05/02 08:09:57;;;;;;;25.38;14.13;;;;;;;;;;4991076;28;20035;-65
2022/05/02 08:12:30;;;;;;;24.58;14.00;;;;;;;;;;4991056;28;20038;-65
2022/05/02 08:15:01;;;;;;;34.60;16.05;;;;;;;;;;4990754;28;20031;-65
2022/05/02 08:17:27;;;;;;;30.08;15.18;;;;;;;;;;4972431;28;20080;-65
2022/05/02 08:20:03;;;;;;;25.02;14.95;;;;;;;;;;4971121;28;20515;-65
2022/05/02 08:28:39;;;;;;;27.40;14.77;;;;;;;;;;4971531;28;20035;-65
2022/05/02 08:31:20;;;;;;;25.92;14.40;;;;;;;;;;4971114;28;20031;-65
2022/05/02 08:33:54;;;;;;;25.05;15.27;;;;;;;;;;4970877;28;20039;-65
2022/05/02 08:36:28;;;;;;;27.17;13.52;;;;;;;;;;4970266;28;20026;-65
2022/05/02 08:39:07;;;;;;;22.48;13.85;;;;;;;;;;4971135;28;20076;-65
2022/05/02 08:41:59;;;;;;;27.92;14.50;;;;;;;;;;4971231;28;20026;-65
2022/05/02 08:44:44;;;;;;;24.97;14.17;;;;;;;;;;5030526;28;20076;-65
2022/05/02 08:47:13;;;;;;;27.17;15.00;;;;;;;;;;5030356;28;20520;-65
2022/05/02 08:49:42;;;;;;;27.48;15.18;;;;;;;;;;5030312;28;20065;-65
2022/05/02 08:52:27;;;;;;;29.10;14.85;;;;;;;;;;5030265;28;20481;-65
2022/05/02 08:55:02;;;;;;;24.60;13.55;;;;;;;;;;5030369;28;20477;-65
2022/05/02 08:57:57;;;;;;;24.73;13.48;;;;;;;;;;5030320;28;20041;-65
2022/05/02 09:00:30;;;;;;;20.23;12.15;;;;;;;;;;4990966;28;20249;-65
2022/05/02 09:03:11;;;;;;;22.53;12.70;;;;;;;;;;4990659;28;20456;-65
2022/05/02 09:05:45;;;;;;;24.40;13.38;;;;;;;;;;4990939;28;20305;-65
2022/05/02 09:08:14;;;;;;;21.77;12.52;;;;;;;;;;4990518;28;20409;-65
2022/05/02 09:10:59;;;;;;;25.50;14.15;;;;;;;;;;4990375;28;20184;-65
2022/05/02 09:13:25;;;;;;;29.00;14.32;;;;;;;;;;4990615;28;20036;-65
2022/05/02 09:16:03;;;;;;;20.67;13.00;;;;;;;;;;4985054;28;20043;-65
2022/05/02 09:18:35;;;;;;;26.67;12.50;;;;;;;;;;4970921;28;20050;-65
2022/05/02 09:21:24;;;;;;;26.67;12.35;;;;;;;;;;4961868;28;20238;-65
2022/05/02 09:23:57;;;;;;;23.05;12.20;;;;;;;;;;4949238;28;20043;-65
2022/05/02 09:26:38;;;;;;;22.02;12.55;;;;;;;;;;4949033;29;20046;-65
2022/05/02 09:29:23;;;;;;;18.58;11.55;;;;;;;;;;4948854;29;20067;-65
2022/05/02 09:32:08;;;;;;;19.48;11.05;;;;;;;;;;4948736;29;20063;-65
2022/05/02 09:34:36;;;;;;;23.95;12.48;;;;;;;;;;4948824;29;20039;-65
2022/05/02 09:37:06;;;;;;;25.45;12.45;;;;;;;;;;4961689;28;20037;-65
2022/05/02 09:39:41;;;;;;;22.65;11.65;;;;;;;;;;4970401;28;20034;-65
2022/05/02 09:42:27;;;;;;;19.95;11.57;;;;;;;;;;4969873;28;20092;-65
2022/05/02 09:50:44;;;;;;;24.88;11.98;;;;;;;;;;4989627;28;20038;-65
2022/05/02 09:53:15;;;;;;;21.17;12.30;;;;;;;;;;4989458;28;20037;-65
2022/05/02 09:59:09;;;;;;;16.95;9.60;;;;;;;;;;4989516;28;20035;-65
2022/05/02 10:01:35;;;;;;;18.55;9.55;;;;;;;;;;5001415;28;20510;-65
2022/05/02 10:04:12;;;;;;;17.45;10.13;;;;;;;;;;4989366;28;20033;-65
2022/05/02 10:06:38;;;;;;;18.40;9.63;;;;;;;;;;4989271;28;20034;-65
2022/05/02 10:09:17;;;;;;;13.95;9.27;;;;;;;;;;4988909;28;20050;-65
2022/05/02 10:11:55;;;;;;;15.82;9.18;;;;;;;;;;4989338;28;20438;-65
2022/05/02 10:14:38;;;;;;;20.95;9.88;;;;;;;;;;4989357;28;20038;-65
2022/05/02 10:17:17;;;;;;;14.60;8.73;;;;;;;;;;4973500;28;20038;-65
2022/05/02 10:19:58;;;;;;;18.40;9.80;;;;;;;;;;4969722;28;20075;-65
2022/05/02 10:22:32;;;;;;;19.63;9.38;;;;;;;;;;4968680;28;20484;-65
2022/05/02 10:25:05;;;;;;;18.77;10.05;;;;;;;;;;4969715;28;20080;-65
2022/05/02 10:27:43;;;;;;;16.08;10.48;;;;;;;;;;4969619;28;20413;-65
2022/05/02 10:30:12;;;;;;;16.75;9.07;;;;;;;;;;4969294;28;20069;-65
2022/05/02 10:32:45;;;;;;;15.40;9.25;;;;;;;;;;4969534;28;20026;-65
2022/05/02 10:35:13;;;;;;;15.18;8.82;;;;;;;;;;4969344;28;20037;-65
2022/05/02 10:37:40;;;;;;;17.33;10.13;;;;;;;;;;4979535;28;20045;-65
2022/05/02 10:40:10;;;;;;;17.33;10.25;;;;;;;;;;4972309;28;20817;-65
2022/05/02 10:42:37;;;;;;;15.30;9.20;;;;;;;;;;4978595;28;20463;-65
2022/05/02 10:45:03;;;;;;;15.95;9.85;;;;;;;;;;4986814;28;20022;-65
2022/05/02 10:47:36;;;;;;;18.88;11.18;;;;;;;;;;4982430;28;20046;-65
2022/05/02 10:50:02;;;;;;;17.52;10.38;;;;;;;;;;4976939;28;20034;-65
2022/05/02 10:52:32;;;;;;;20.05;10.57;;;;;;;;;;4976139;28;20039;-65
2022/05/02 10:55:07;;;;;;;18.38;10.32;;;;;;;;;;4988040;28;20084;-65
2022/05/02 10:57:40;;;;;;;17.55;10.10;;;;;;;;;;4980202;28;20506;-65
2022/05/02 11:00:09;;;;;;;16.42;10.77;;;;;;;;;;4985766;28;20026;-65
2022/05/02 11:02:44;;;;;;;19.67;10.63;;;;;;;;;;4988454;28;20064;-65
2022/05/02 11:05:12;;;;;;;17.33;10.68;;;;;;;;;;4974674;28;20019;-65
2022/05/02 11:07:54;;;;;;;15.93;9.40;;;;;;;;;;4968761;28;20030;-65
2022/05/02 11:10:21;;;;;;;16.30;9.73;;;;;;;;;;4973057;28;20031;-65
2022/05/02 11:13:00;;;;;;;18.35;9.77;;;;;;;;;;4985077;28;20034;-65
2022/05/02 11:15:28;;;;;;;19.92;9.57;;;;;;;;;;4976804;28;20035;-65
2022/05/02 11:17:57;;;;;;;15.15;9.43;;;;;;;;;;4971892;28;20027;-65
2022/05/02 11:20:41;;;;;;;16.77;9.52;;;;;;;;;;4984066;28;20033;-65
2022/05/02 11:23:10;;;;;;;17.15;10.07;;;;;;;;;;4970377;28;20046;-65
2022/05/02 11:25:39;;;;;;;16.90;9.45;;;;;;;;;;4970037;28;20106;-65
2022/05/02 11:28:12;;;;;;;15.57;9.73;;;;;;;;;;4977001;28;20135;-65
2022/05/02 11:30:43;;;;;;;16.45;9.45;;;;;;;;;;4988814;28;20022;-64
2022/05/02 11:33:09;;;;;;;18.10;9.13;;;;;;;;;;4990380;28;20038;-64
2022/05/02 11:35:36;;;;;;;18.55;9.73;;;;;;;;;;4992268;28;20054;-64
2022/05/02 11:38:11;;;;;;;14.20;8.60;;;;;;;;;;4992172;28;20484;-64
2022/05/02 11:40:47;;;;;;;14.98;8.25;;;;;;;;;;4992135;28;20026;-64
2022/05/02 11:43:15;;;;;;;17.13;8.95;;;;;;;;;;4992087;28;20046;-65
2022/05/02 11:45:42;;;;;;;14.50;9.23;;;;;;;;;;4991070;28;20434;-65
2022/05/02 11:48:09;;;;;;;15.45;9.40;;;;;;;;;;4992176;28;20039;-64
2022/05/02 11:50:44;;;;;;;19.48;9.25;;;;;;;;;;4991955;28;20114;-65
2022/05/02 11:53:13;;;;;;;17.65;10.52;;;;;;;;;;4992219;28;20038;-64
2022/05/02 11:55:40;;;;;;;18.33;9.63;;;;;;;;;;4991592;28;20027;-65
2022/05/02 11:58:26;;;;;;;14.65;9.27;;;;;;;;;;4991814;28;20392;-64
2022/05/02 12:01:02;;;;;;;20.50;9.70;;;;;;;;;;4992099;28;20069;-65
2022/05/02 12:03:36;;;;;;;16.10;10.45;;;;;;;;;;4991654;28;20478;-65
2022/05/02 12:06:02;;;;;;;15.55;9.25;;;;;;;;;;4992054;28;20030;-65
2022/05/02 12:08:34;;;;;;;19.83;11.18;;;;;;;;;;4991461;28;20508;-65
2022/05/02 12:11:03;;;;;;;19.50;12.05;;;;;;;;;;4991508;28;20053;-64
2022/05/02 12:13:37;;;;;;;22.50;11.90;;;;;;;;;;4989503;28;20140;-64
2022/05/02 12:16:04;;;;;;;18.00;10.48;;;;;;;;;;4972347;28;20253;-65
2022/05/02 12:18:39;;;;;;;22.67;11.18;;;;;;;;;;4971895;28;20477;-64
2022/05/02 12:21:07;;;;;;;16.80;10.38;;;;;;;;;;4972496;28;20019;-64
2022/05/02 12:23:35;;;;;;;20.33;11.50;;;;;;;;;;4984579;28;20026;-64
2022/05/02 12:26:05;;;;;;;23.73;11.93;;;;;;;;;;4991353;28;20058;-64
2022/05/02 12:28:45;;;;;;;22.15;10.75;;;;;;;;;;4991258;28;20029;-65
2022/05/02 12:31:20;;;;;;;18.88;11.80;;;;;;;;;;4991576;28;20504;-64
2022/05/02 12:33:54;;;;;;;21.40;11.70;;;;;;;;;;4991612;28;20053;-64
2022/05/02 12:36:21;;;;;;;21.40;11.93;;;;;;;;;;4991482;28;20030;-64
2022/05/02 12:38:54;;;;;;;20.02;11.18;;;;;;;;;;4991359;28;20058;-64
2022/05/02 12:41:27;;;;;;;20.60;12.38;;;;;;;;;;4991268;28;20131;-64
2022/05/02 12:43:59;;;;;;;18.48;10.93;;;;;;;;;;4991000;28;20208;-65
2022/05/02 12:46:32;;;;;;;20.90;12.10;;;;;;;;;;4990001;28;20038;-64
2022/05/02 12:48:59;;;;;;;;;;;;;;;;;;4991777;28;20030;-64
2022/05/02 12:51:28;;;;;;;22.00;12.20;;;;;;;;;;4991055;28;19988;-64
2022/05/02 12:54:12;;;;;;;19.98;11.05;;;;;;;;;;4991120;28;20479;-64
2022/05/02 13:00:30;;;;;;;16.73;11.00;;;;;;;;;;4990688;28;20415;-64
2022/05/02 13:02:34;;;;;;;20.67;12.43;;;;;;;;;;4991244;28;20058;-64
2022/05/02 13:05:10;;;;;;;18.52;11.05;;;;;;;;;;4991181;28;20038;-64
2022/05/02 13:07:47;;;;;;;23.95;11.85;;;;;;;;;;4990619;28;20030;-65
2022/05/02 13:10:19;;;;;;;19.80;10.30;;;;;;;;;;4990983;28;20038;-64
2022/05/02 13:13:00;;;;;;;21.23;11.75;;;;;;;;;;4990528;28;20033;-64
2022/05/02 13:15:28;;;;;;;25.55;12.20;;;;;;;;;;4990676;28;20030;-64
2022/05/02 13:18:04;;;;;;;23.15;12.75;;;;;;;;;;4990884;28;20058;-64
2022/05/02 13:20:31;;;;;;;24.63;11.95;;;;;;;;;;4990565;28;20030;-64
2022/05/02 13:22:58;;;;;;;21.83;11.93;;;;;;;;;;4990724;28;20028;-64
2022/05/02 13:25:43;;;;;;;20.98;11.60;;;;;;;;;;4990481;28;20156;-64
2022/05/02 13:28:11;;;;;;;22.85;13.35;;;;;;;;;;4990638;28;20069;-64
2022/05/02 13:30:37;;;;;;;22.42;12.75;;;;;;;;;;4990463;28;20488;-65
2022/05/02 13:33:06;;;;;;;22.15;12.30;;;;;;;;;;4990765;28;20038;-65
2022/05/02 13:35:34;;;;;;;25.27;12.73;;;;;;;;;;4990261;28;20440;-65
2022/05/02 13:38:10;;;;;;;23.23;12.95;;;;;;;;;;4990480;28;20105;-65
2022/05/02 13:40:47;;;;;;;20.35;12.95;;;;;;;;;;4990425;28;20030;-64
2022/05/02 13:43:25;;;;;;;25.27;12.88;;;;;;;;;;4989282;28;20554;-64
2022/05/02 13:45:55;;;;;;;21.48;13.18;;;;;;;;;;4990339;28;20030;-64
2022/05/02 13:48:40;;;;;;;23.73;12.82;;;;;;;;;;4990433;28;20031;-64
2022/05/02 13:51:19;;;;;;;21.10;13.25;;;;;;;;;;4990664;28;20041;-64
2022/05/02 13:53:56;;;;;;;20.60;13.38;;;;;;;;;;4989733;28;20030;-64
2022/05/02 13:56:31;;;;;;;21.65;13.77;;;;;;;;;;4979457;28;20075;-65
2022/05/02 13:58:57;;;;;;;32.72;15.68;;;;;;;;;;4980397;28;20076;-65
2022/05/02 14:01:42;;;;;;;25.55;14.48;;;;;;;;;;4979384;28;20030;-64
2022/05/02 14:04:29;;;;;;;24.90;14.95;;;;;;;;;;4978697;28;20042;-65
2022/05/02 14:09:42;;;;;;;25.92;13.95;;;;;;;;;;4978855;28;20057;-65
2022/05/02 14:12:10;;;;;;;22.95;13.85;;;;;;;;;;4981307;28;20034;-65
2022/05/02 14:14:55;;;;;;;22.25;13.73;;;;;;;;;;4979540;28;20512;-65
2022/05/02 14:17:49;;;;;;;25.08;13.55;;;;;;;;;;4980294;28;20054;-65
2022/05/02 14:20:28;;;;;;;20.63;13.20;;;;;;;;;;4985708;28;20411;-65
2022/05/02 14:23:08;;;;;;;24.35;13.60;;;;;;;;;;4980806;28;20475;-65
2022/05/02 14:25:39;;;;;;;21.63;13.23;;;;;;;;;;4992123;28;20042;-65
2022/05/02 14:28:08;;;;;;;24.60;13.93;;;;;;;;;;4977983;28;20126;-65
2022/05/02 14:30:38;;;;;;;27.23;15.73;;;;;;;;;;4979604;28;20049;-65
2022/05/02 14:33:12;;;;;;;26.13;14.35;;;;;;;;;;4977832;28;20062;-64
2022/05/02 14:35:43;;;;;;;25.38;15.20;;;;;;;;;;4977684;28;20461;-65
2022/05/02 14:38:09;;;;;;;24.05;13.40;;;;;;;;;;4978465;28;20445;-65
2022/05/02 14:40:39;;;;;;;26.05;14.45;;;;;;;;;;4980357;28;20072;-65
2022/05/02 14:43:07;;;;;;;23.35;14.65;;;;;;;;;;4990325;28;20117;-65
2022/05/02 14:45:33;;;;;;;32.60;16.92;;;;;;;;;;4986762;28;20084;-65
2022/05/02 14:48:02;;;;;;;27.92;14.70;;;;;;;;;;4976210;28;20023;-65
2022/05/02 14:50:28;;;;;;;24.05;14.27;;;;;;;;;;4979755;28;20058;-65
2022/05/02 14:52:55;;;;;;;32.42;14.52;;;;;;;;;;4986780;28;20038;-65
2022/05/02 14:55:24;;;;;;;26.77;15.35;;;;;;;;;;4972918;28;20480;-65
2022/05/02 14:57:51;;;;;;;22.42;13.57;;;;;;;;;;4988084;28;20045;-65
2022/05/02 15:00:23;;;;;;;25.42;13.30;;;;;;;;;;4990023;28;20022;-66
2022/05/02 15:02:50;;;;;;;25.50;15.43;;;;;;;;;;4978594;28;20045;-65
2022/05/02 15:05:20;;;;;;;22.08;12.95;;;;;;;;;;4977172;28;20168;-65
2022/05/02 15:08:05;;;;;;;26.02;15.30;;;;;;;;;;4976377;28;20046;-65
2022/05/02 15:10:50;;;;;;;23.23;14.35;;;;;;;;;;4980842;28;20446;-65
2022/05/02 15:13:25;;;;;;;27.50;14.98;;;;;;;;;;4981279;28;20087;-65
2022/05/02 15:16:03;;;;;;;21.92;12.68;;;;;;;;;;4981114;28;20446;-65
2022/05/02 15:19:33;;;;;;;28.67;12.68;;;;;;;;;;4992516;28;20030;-65
2022/05/02 15:21:33;;;;;;;23.13;13.48;;;;;;;;;;4992630;28;20074;-65
2022/05/02 15:24:00;;;;;;;19.25;11.25;;;;;;;;;;4992455;28;20026;-65
2022/05/02 15:26:45;;;;;;;22.35;12.30;;;;;;;;;;4984544;28;20069;-65
2022/05/02 15:37:46;;;;;;;19.85;12.45;;;;;;;;;;4975961;28;20035;-65
2022/05/02 15:40:31;;;;;;;19.08;11.07;;;;;;;;;;4977512;28;20033;-65
2022/05/02 15:43:29;;;;;;;20.45;12.18;;;;;;;;;;4992845;28;20377;-65
2022/05/02 15:45:57;;;;;;;21.80;10.30;;;;;;;;;;5012893;28;20041;-66
2022/05/02 15:48:39;;;;;;;26.00;12.60;;;;;;;;;;5013421;28;20068;-66